createdAt,value
2018-02-15T00:00:27.605Z,0
2018-02-15T00:01:27.859Z,0
2018-02-15T00:02:27.274Z,0
2018-02-15T00:03:27.850Z,0
2018-02-15T00:04:27.292Z,0
2018-02-15T00:05:27.632Z,0
2018-02-15T00:06:27.316Z,0
2018-02-15T00:07:27.319Z,0
2018-02-15T00:08:27.633Z,0
2018-02-15T00:09:27.623Z,0
2018-02-15T00:10:27.968Z,0
2018-02-15T00:11:27.647Z,0
2018-02-15T00:12:27.665Z,0
2018-02-15T00:13:27.391Z,0
2018-02-15T00:14:27.388Z,0
2018-02-15T00:15:27.446Z,0
2018-02-15T00:16:27.683Z,0
2018-02-15T00:17:27.765Z,0
2018-02-15T00:18:27.145Z,0
2018-02-15T00:19:27.448Z,0
2018-02-15T00:20:27.496Z,0
2018-02-15T00:21:28.061Z,0
2018-02-15T00:22:27.767Z,0
2018-02-15T00:23:28.030Z,0
2018-02-15T00:24:27.773Z,0
2018-02-15T00:25:27.787Z,0
2018-02-15T00:26:27.777Z,0
2018-02-15T00:27:27.508Z,0
2018-02-15T00:28:27.514Z,0
2018-02-15T00:29:27.244Z,0
2018-02-15T00:30:27.815Z,0
2018-02-15T00:31:27.555Z,0
2018-02-15T00:32:27.555Z,0
2018-02-15T00:33:27.566Z,0
2018-02-15T00:34:27.301Z,0
2018-02-15T00:35:27.867Z,0
2018-02-15T00:36:27.874Z,0
2018-02-15T00:37:27.617Z,0
2018-02-15T00:38:27.611Z,0
2018-02-15T00:39:27.632Z,0
2018-02-15T00:40:28.244Z,0
2018-02-15T00:41:27.925Z,0
2018-02-15T00:42:28.214Z,0
2018-02-15T00:43:27.670Z,0
2018-02-15T00:44:27.673Z,0
2018-02-15T00:45:27.954Z,0
2018-02-15T00:46:27.964Z,0
2018-02-15T00:47:28.275Z,0
2018-02-15T00:48:27.710Z,0
2018-02-15T00:49:28.011Z,0
2018-02-15T00:50:28.278Z,0
2018-02-15T00:51:28.013Z,0
2018-02-15T00:52:27.459Z,0
2018-02-15T00:53:27.479Z,0
2018-02-15T00:54:28.037Z,0
2018-02-15T00:55:27.782Z,0
2018-02-15T00:56:27.788Z,0
2018-02-15T00:57:28.356Z,0
2018-02-15T00:58:28.081Z,0
2018-02-15T00:59:28.374Z,0
2018-02-15T01:00:28.103Z,0
2018-02-15T01:01:28.390Z,0
2018-02-15T01:02:27.834Z,0
2018-02-15T01:03:27.557Z,0
2018-02-15T01:04:27.847Z,0
2018-02-15T01:05:28.143Z,0
2018-02-15T01:06:28.197Z,0
2018-02-15T01:07:28.171Z,0
2018-02-15T01:08:28.164Z,0
2018-02-15T01:09:28.464Z,0
2018-02-15T01:10:27.908Z,0
2018-02-15T01:11:27.919Z,0
2018-02-15T01:12:27.925Z,0
2018-02-15T01:13:28.221Z,0
2018-02-15T01:14:27.942Z,0
2018-02-15T01:15:27.955Z,0
2018-02-15T01:16:28.250Z,0
2018-02-15T01:17:28.535Z,0
2018-02-15T01:18:27.695Z,0
2018-02-15T01:19:27.992Z,0
2018-02-15T01:20:28.567Z,0
2018-02-15T01:21:28.284Z,0
2018-02-15T01:22:28.294Z,0
2018-02-15T01:23:28.309Z,0
2018-02-15T01:24:27.753Z,0
2018-02-15T01:25:28.360Z,0
2018-02-15T01:26:28.101Z,0
2018-02-15T01:27:28.343Z,0
2018-02-15T01:28:28.382Z,0
2018-02-15T01:29:28.133Z,0
2018-02-15T01:30:28.088Z,0
2018-02-15T01:31:28.448Z,0
2018-02-15T01:32:28.109Z,0
2018-02-15T01:33:28.114Z,0
2018-02-15T01:34:28.418Z,0
2018-02-15T01:35:28.135Z,0
2018-02-15T01:36:28.705Z,0
2018-02-15T01:37:28.757Z,0
2018-02-15T01:38:28.157Z,0
2018-02-15T01:39:28.651Z,0
2018-02-15T01:40:28.187Z,0
2018-02-15T01:41:28.186Z,0
2018-02-15T01:42:27.938Z,0
2018-02-15T01:43:28.206Z,0
2018-02-15T01:44:28.226Z,0
2018-02-15T01:45:28.504Z,0
2018-02-15T01:46:28.263Z,0
2018-02-15T01:47:28.522Z,0
2018-02-15T01:48:28.260Z,0
2018-02-15T01:49:28.823Z,0
2018-02-15T01:50:28.547Z,0
2018-02-15T01:51:28.561Z,0
2018-02-15T01:52:28.289Z,0
2018-02-15T01:53:28.576Z,0
2018-02-15T01:54:28.035Z,0
2018-02-15T01:55:28.317Z,0
2018-02-15T01:56:28.888Z,0
2018-02-15T01:57:28.612Z,0
2018-02-15T01:58:28.903Z,0
2018-02-15T01:59:28.348Z,0
2018-02-15T02:00:28.637Z,0
2018-02-15T02:01:28.367Z,0
2018-02-15T02:02:28.939Z,0
2018-02-15T02:03:28.663Z,0
2018-02-15T02:04:28.684Z,0
2018-02-15T02:05:28.966Z,0
2018-02-15T02:06:28.138Z,0
2018-02-15T02:07:28.425Z,0
2018-02-15T02:08:28.773Z,0
2018-02-15T02:09:28.443Z,0
2018-02-15T02:10:28.463Z,0
2018-02-15T02:11:28.459Z,0
2018-02-15T02:12:28.754Z,0
2018-02-15T02:13:28.481Z,0
2018-02-15T02:14:28.487Z,0
2018-02-15T02:15:28.778Z,0
2018-02-15T02:16:28.832Z,0
2018-02-15T02:17:28.230Z,0
2018-02-15T02:18:28.821Z,0
2018-02-15T02:19:28.806Z,0
2018-02-15T02:20:28.256Z,0
2018-02-15T02:21:28.680Z,0
2018-02-15T02:22:29.122Z,0
2018-02-15T02:23:28.574Z,0
2018-02-15T02:24:28.860Z,0
2018-02-15T02:25:28.583Z,0
2018-02-15T02:26:28.599Z,0
2018-02-15T02:27:28.602Z,0
2018-02-15T02:28:28.899Z,0
2018-02-15T02:29:28.621Z,0
2018-02-15T02:30:28.723Z,0
2018-02-15T02:31:28.927Z,0
2018-02-15T02:32:28.925Z,0
2018-02-15T02:33:28.946Z,0
2018-02-15T02:34:29.027Z,0
2018-02-15T02:35:28.683Z,0
2018-02-15T02:36:28.962Z,0
2018-02-15T02:37:29.259Z,0
2018-02-15T02:38:29.274Z,0
2018-02-15T02:39:28.427Z,0
2018-02-15T02:40:28.721Z,0
2018-02-15T02:41:29.306Z,0
2018-02-15T02:42:29.034Z,0
2018-02-15T02:43:28.762Z,0
2018-02-15T02:44:29.043Z,0
2018-02-15T02:45:29.048Z,0
2018-02-15T02:46:29.068Z,0
2018-02-15T02:47:28.503Z,0
2018-02-15T02:48:29.112Z,0
2018-02-15T02:49:28.797Z,0
2018-02-15T02:50:28.807Z,0
2018-02-15T02:51:28.813Z,0
2018-02-15T02:52:29.410Z,0
2018-02-15T02:53:29.126Z,0
2018-02-15T02:54:29.414Z,0
2018-02-15T02:55:29.144Z,0
2018-02-15T02:56:29.439Z,0
2018-02-15T02:57:29.431Z,0
2018-02-15T02:58:29.171Z,0
2018-02-15T02:59:29.164Z,0
2018-02-15T03:00:29.189Z,0
2018-02-15T03:01:28.962Z,0
2018-02-15T03:02:29.494Z,0
2018-02-15T03:03:28.921Z,0
2018-02-15T03:04:29.235Z,0
2018-02-15T03:05:29.271Z,0
2018-02-15T03:06:28.962Z,0
2018-02-15T03:07:29.244Z,0
2018-02-15T03:08:28.967Z,0
2018-02-15T03:09:28.979Z,0
2018-02-15T03:10:28.981Z,0
2018-02-15T03:11:29.280Z,0
2018-02-15T03:12:29.647Z,0
2018-02-15T03:13:29.289Z,0
2018-02-15T03:14:29.028Z,0
2018-02-15T03:15:29.089Z,0
2018-02-15T03:16:29.033Z,0
2018-02-15T03:17:29.054Z,0
2018-02-15T03:18:29.334Z,0
2018-02-15T03:19:28.781Z,0
2018-02-15T03:20:29.067Z,0
2018-02-15T03:21:29.360Z,0
2018-02-15T03:22:29.290Z,0
2018-02-15T03:23:29.664Z,0
2018-02-15T03:24:29.121Z,0
2018-02-15T03:25:29.517Z,0
2018-02-15T03:26:29.176Z,0
2018-02-15T03:27:29.141Z,0
2018-02-15T03:28:28.865Z,0
2018-02-15T03:29:29.159Z,0
2018-02-15T03:30:29.445Z,0
2018-02-15T03:31:29.506Z,0
2018-02-15T03:32:29.188Z,0
2018-02-15T03:33:29.182Z,0
2018-02-15T03:34:29.508Z,0
2018-02-15T03:35:29.511Z,0
2018-02-15T03:36:29.544Z,0
2018-02-15T03:37:29.524Z,0
2018-02-15T03:38:29.806Z,0
2018-02-15T03:39:29.536Z,0
2018-02-15T03:40:29.247Z,0
2018-02-15T03:41:29.827Z,0
2018-02-15T03:42:29.540Z,0
2018-02-15T03:43:29.569Z,0
2018-02-15T03:44:29.278Z,0
2018-02-15T03:45:29.592Z,0
2018-02-15T03:46:29.313Z,0
2018-02-15T03:47:29.304Z,0
2018-02-15T03:48:29.353Z,0
2018-02-15T03:49:29.607Z,0
2018-02-15T03:50:29.612Z,0
2018-02-15T03:51:29.342Z,0
2018-02-15T03:52:29.908Z,0
2018-02-15T03:53:29.642Z,0
2018-02-15T03:54:29.944Z,0
2018-02-15T03:55:29.115Z,0
2018-02-15T03:56:30.489Z,0
2018-02-15T03:57:29.406Z,0
2018-02-15T03:58:29.965Z,0
2018-02-15T03:59:29.715Z,0
2018-02-15T04:00:29.698Z,0
2018-02-15T04:01:29.990Z,0
2018-02-15T04:02:29.157Z,0
2018-02-15T04:03:29.734Z,0
2018-02-15T04:04:29.736Z,0
2018-02-15T04:05:30.034Z,0
2018-02-15T04:06:29.484Z,0
2018-02-15T04:07:29.479Z,0
2018-02-15T04:08:29.763Z,0
2018-02-15T04:09:29.498Z,0
2018-02-15T04:10:29.784Z,0
2018-02-15T04:11:29.793Z,0
2018-02-15T04:12:29.677Z,0
2018-02-15T04:13:29.554Z,0
2018-02-15T04:14:29.542Z,0
2018-02-15T04:15:29.602Z,0
2018-02-15T04:16:29.837Z,0
2018-02-15T04:17:29.908Z,0
2018-02-15T04:18:29.869Z,0
2018-02-15T04:19:29.865Z,0
2018-02-15T04:20:30.157Z,0
2018-02-15T04:21:29.597Z,0
2018-02-15T04:22:29.324Z,0
2018-02-15T04:23:30.227Z,0
2018-02-15T04:24:29.627Z,0
2018-02-15T04:25:29.373Z,0
2018-02-15T04:26:29.359Z,0
2018-02-15T04:27:29.937Z,0
2018-02-15T04:28:29.673Z,0
2018-02-15T04:29:29.665Z,0
2018-02-15T04:30:29.955Z,0
2018-02-15T04:31:29.966Z,0
2018-02-15T04:32:30.309Z,0
2018-02-15T04:33:29.699Z,0
2018-02-15T04:34:29.741Z,0
2018-02-15T04:35:30.014Z,0
2018-02-15T04:36:29.726Z,0
2018-02-15T04:37:30.064Z,0
2018-02-15T04:38:30.045Z,0
2018-02-15T04:39:30.321Z,0
2018-02-15T04:40:29.771Z,0
2018-02-15T04:41:30.066Z,0
2018-02-15T04:42:30.066Z,0
2018-02-15T04:43:29.511Z,0
2018-02-15T04:44:30.076Z,0
2018-02-15T04:45:30.088Z,0
2018-02-15T04:46:30.095Z,0
2018-02-15T04:47:29.822Z,0
2018-02-15T04:48:30.396Z,0
2018-02-15T04:49:29.844Z,0
2018-02-15T04:50:30.137Z,0
2018-02-15T04:51:29.576Z,0
2018-02-15T04:52:30.448Z,0
2018-02-15T04:53:29.972Z,0
2018-02-15T04:54:30.168Z,0
2018-02-15T04:55:30.179Z,0
2018-02-15T04:56:29.908Z,0
2018-02-15T04:57:30.242Z,0
2018-02-15T04:58:29.925Z,0
2018-02-15T04:59:29.649Z,0
2018-02-15T05:00:30.508Z,0
2018-02-15T05:01:30.225Z,0
2018-02-15T05:02:30.232Z,0
2018-02-15T05:03:30.444Z,0
2018-02-15T05:04:29.975Z,0
2018-02-15T05:05:30.257Z,0
2018-02-15T05:06:29.994Z,0
2018-02-15T05:07:30.273Z,0
2018-02-15T05:08:30.577Z,0
2018-02-15T05:09:29.737Z,0
2018-02-15T05:10:30.310Z,0
2018-02-15T05:11:30.308Z,0
2018-02-15T05:12:30.316Z,0
2018-02-15T05:13:30.324Z,0
2018-02-15T05:14:29.777Z,0
2018-02-15T05:15:30.065Z,0
2018-02-15T05:16:30.363Z,0
2018-02-15T05:17:30.078Z,0
2018-02-15T05:18:30.120Z,0
2018-02-15T05:19:30.376Z,0
2018-02-15T05:20:30.431Z,0
2018-02-15T05:21:30.118Z,0
2018-02-15T05:22:30.405Z,0
2018-02-15T05:23:30.420Z,0
2018-02-15T05:24:30.437Z,0
2018-02-15T05:25:30.154Z,0
2018-02-15T05:26:30.155Z,0
2018-02-15T05:27:30.165Z,0
2018-02-15T05:28:30.458Z,0
2018-02-15T05:29:30.470Z,0
2018-02-15T05:30:30.476Z,0
2018-02-15T05:31:30.482Z,0
2018-02-15T05:32:30.213Z,0
2018-02-15T05:33:30.498Z,0
2018-02-15T05:34:31.069Z,0
2018-02-15T05:35:29.988Z,0
2018-02-15T05:36:30.813Z,0
2018-02-15T05:37:30.873Z,0
2018-02-15T05:38:30.267Z,0
2018-02-15T05:39:30.545Z,0
2018-02-15T05:40:30.273Z,0
2018-02-15T05:41:30.576Z,0
2018-02-15T05:42:30.295Z,0
2018-02-15T05:43:30.040Z,0
2018-02-15T05:44:30.040Z,0
2018-02-15T05:45:30.047Z,0
2018-02-15T05:46:30.614Z,0
2018-02-15T05:47:30.348Z,0
2018-02-15T05:48:30.357Z,0
2018-02-15T05:49:30.646Z,0
2018-02-15T05:50:30.365Z,0
2018-02-15T05:51:30.656Z,0
2018-02-15T05:52:30.661Z,0
2018-02-15T05:53:31.019Z,0
2018-02-15T05:54:30.682Z,0
2018-02-15T05:55:30.705Z,0
2018-02-15T05:56:30.975Z,0
2018-02-15T05:57:30.984Z,0
2018-02-15T05:58:30.435Z,0
2018-02-15T05:59:30.730Z,0
2018-02-15T06:00:31.014Z,0
2018-02-15T06:01:30.740Z,0
2018-02-15T06:02:30.771Z,0
2018-02-15T06:03:30.534Z,4
2018-02-15T06:04:30.493Z,4
2018-02-15T06:05:31.082Z,0
2018-02-15T06:06:30.910Z,0
2018-02-15T06:07:30.550Z,4
2018-02-15T06:08:30.281Z,4
2018-02-15T06:09:30.878Z,4
2018-02-15T06:10:30.872Z,4
2018-02-15T06:11:30.886Z,4
2018-02-15T06:12:31.192Z,4
2018-02-15T06:13:30.622Z,4
2018-02-15T06:14:30.621Z,4
2018-02-15T06:15:30.619Z,8
2018-02-15T06:16:31.203Z,8
2018-02-15T06:17:30.649Z,8
2018-02-15T06:18:30.953Z,12
2018-02-15T06:19:30.947Z,12
2018-02-15T06:20:30.978Z,12
2018-02-15T06:21:30.684Z,16
2018-02-15T06:22:30.889Z,16
2018-02-15T06:23:31.030Z,16
2018-02-15T06:24:30.996Z,24
2018-02-15T06:25:30.716Z,24
2018-02-15T06:26:30.726Z,28
2018-02-15T06:27:30.728Z,28
2018-02-15T06:28:30.735Z,28
2018-02-15T06:29:31.032Z,32
2018-02-15T06:30:30.759Z,36
2018-02-15T06:31:31.045Z,36
2018-02-15T06:32:31.055Z,36
2018-02-15T06:33:31.112Z,40
2018-02-15T06:34:31.719Z,44
2018-02-15T06:35:31.371Z,48
2018-02-15T06:36:30.800Z,48
2018-02-15T06:37:30.914Z,56
2018-02-15T06:38:30.886Z,56
2018-02-15T06:39:30.542Z,60
2018-02-15T06:40:31.126Z,64
2018-02-15T06:41:31.049Z,64
2018-02-15T06:42:31.148Z,68
2018-02-15T06:43:30.873Z,72
2018-02-15T06:44:30.877Z,76
2018-02-15T06:45:30.611Z,80
2018-02-15T06:46:30.902Z,80
2018-02-15T06:47:31.183Z,88
2018-02-15T06:48:30.619Z,92
2018-02-15T06:49:30.920Z,100
2018-02-15T06:50:31.497Z,108
2018-02-15T06:51:31.221Z,116
2018-02-15T06:52:31.231Z,128
2018-02-15T06:53:31.006Z,136
2018-02-15T06:54:30.672Z,144
2018-02-15T06:55:30.969Z,152
2018-02-15T06:56:31.260Z,164
2018-02-15T06:57:30.991Z,176
2018-02-15T06:58:31.296Z,176
2018-02-15T06:59:31.579Z,184
2018-02-15T07:00:31.296Z,188
2018-02-15T07:01:31.323Z,192
2018-02-15T07:02:31.058Z,200
2018-02-15T07:03:31.039Z,204
2018-02-15T07:04:31.357Z,212
2018-02-15T07:05:31.713Z,212
2018-02-15T07:06:31.359Z,216
2018-02-15T07:07:31.368Z,224
2018-02-15T07:08:31.371Z,228
2018-02-15T07:09:31.136Z,224
2018-02-15T07:10:31.411Z,220
2018-02-15T07:11:31.116Z,212
2018-02-15T07:12:31.120Z,216
2018-02-15T07:13:31.176Z,224
2018-02-15T07:14:31.137Z,228
2018-02-15T07:15:31.434Z,228
2018-02-15T07:16:31.147Z,224
2018-02-15T07:17:31.171Z,224
2018-02-15T07:18:31.174Z,232
2018-02-15T07:19:31.192Z,236
2018-02-15T07:20:30.913Z,248
2018-02-15T07:21:31.206Z,264
2018-02-15T07:22:31.501Z,284
2018-02-15T07:23:31.506Z,300
2018-02-15T07:24:31.802Z,312
2018-02-15T07:25:31.532Z,320
2018-02-15T07:26:31.244Z,332
2018-02-15T07:27:30.971Z,344
2018-02-15T07:28:31.331Z,344
2018-02-15T07:29:30.982Z,332
2018-02-15T07:30:31.560Z,328
2018-02-15T07:31:31.590Z,312
2018-02-15T07:32:31.297Z,292
2018-02-15T07:33:31.648Z,284
2018-02-15T07:34:31.311Z,284
2018-02-15T07:35:31.320Z,284
2018-02-15T07:36:31.654Z,280
2018-02-15T07:37:31.635Z,276
2018-02-15T07:38:31.061Z,292
2018-02-15T07:39:31.371Z,296
2018-02-15T07:40:31.364Z,280
2018-02-15T07:41:31.943Z,264
2018-02-15T07:42:31.443Z,268
2018-02-15T07:43:31.478Z,272
2018-02-15T07:44:32.856Z,272
2018-02-15T07:45:32.364Z,272
2018-02-15T07:46:31.921Z,280
2018-02-15T07:47:31.942Z,288
2018-02-15T07:48:31.479Z,296
2018-02-15T07:49:31.586Z,300
2018-02-15T07:50:31.744Z,308
2018-02-15T07:51:32.036Z,320
2018-02-15T07:52:31.759Z,320
2018-02-15T07:53:31.484Z,320
2018-02-15T07:54:31.488Z,320
2018-02-15T07:55:31.497Z,324
2018-02-15T07:56:31.504Z,320
2018-02-15T07:57:31.518Z,332
2018-02-15T07:58:31.929Z,352
2018-02-15T07:59:31.536Z,376
2018-02-15T08:00:31.543Z,408
2018-02-15T08:01:31.834Z,444
2018-02-15T08:02:31.560Z,496
2018-02-15T08:03:31.712Z,536
2018-02-15T08:04:32.166Z,564
2018-02-15T08:05:31.870Z,584
2018-02-15T08:06:31.591Z,612
2018-02-15T08:07:31.885Z,628
2018-02-15T08:08:31.622Z,620
2018-02-15T08:09:32.194Z,612
2018-02-15T08:10:31.922Z,620
2018-02-15T08:11:31.929Z,632
2018-02-15T08:12:31.649Z,664
2018-02-15T08:13:31.659Z,704
2018-02-15T08:14:31.959Z,740
2018-02-15T08:15:31.963Z,764
2018-02-15T08:16:31.967Z,772
2018-02-15T08:17:31.694Z,776
2018-02-15T08:18:31.985Z,776
2018-02-15T08:19:32.001Z,756
2018-02-15T08:20:31.734Z,744
2018-02-15T08:21:32.026Z,736
2018-02-15T08:22:31.739Z,752
2018-02-15T08:23:32.315Z,776
2018-02-15T08:24:32.044Z,796
2018-02-15T08:25:32.339Z,812
2018-02-15T08:26:31.776Z,820
2018-02-15T08:27:32.068Z,828
2018-02-15T08:28:31.842Z,840
2018-02-15T08:29:32.083Z,852
2018-02-15T08:30:31.529Z,852
2018-02-15T08:31:32.101Z,844
2018-02-15T08:32:31.829Z,836
2018-02-15T08:33:31.848Z,828
2018-02-15T08:34:31.560Z,832
2018-02-15T08:35:31.865Z,844
2018-02-15T08:36:32.159Z,860
2018-02-15T08:37:31.892Z,872
2018-02-15T08:38:32.516Z,880
2018-02-15T08:39:31.896Z,888
2018-02-15T08:40:32.484Z,900
2018-02-15T08:41:32.488Z,920
2018-02-15T08:42:32.217Z,940
2018-02-15T08:43:31.948Z,952
2018-02-15T08:44:31.943Z,944
2018-02-15T08:45:31.976Z,940
2018-02-15T08:46:32.581Z,944
2018-02-15T08:47:32.252Z,944
2018-02-15T08:48:31.690Z,932
2018-02-15T08:49:31.993Z,920
2018-02-15T08:50:31.999Z,920
2018-02-15T08:51:32.290Z,940
2018-02-15T08:52:32.021Z,944
2018-02-15T08:53:32.313Z,948
2018-02-15T08:54:32.324Z,948
2018-02-15T08:55:32.621Z,952
2018-02-15T08:56:32.337Z,960
2018-02-15T08:57:31.784Z,968
2018-02-15T08:58:32.363Z,984
2018-02-15T08:59:32.653Z,996
2018-02-15T09:00:32.100Z,1000
2018-02-15T09:01:32.101Z,1000
2018-02-15T09:02:32.398Z,1004
2018-02-15T09:03:32.427Z,1024
2018-02-15T09:04:31.842Z,1048
2018-02-15T09:05:32.136Z,1060
2018-02-15T09:06:32.732Z,1060
2018-02-15T09:07:32.457Z,1064
2018-02-15T09:08:32.173Z,1068
2018-02-15T09:09:32.182Z,1052
2018-02-15T09:10:32.486Z,1020
2018-02-15T09:11:32.490Z,1004
2018-02-15T09:12:32.219Z,996
2018-02-15T09:13:32.508Z,992
2018-02-15T09:14:32.227Z,1008
2018-02-15T09:15:32.232Z,1032
2018-02-15T09:16:32.248Z,1076
2018-02-15T09:17:32.252Z,1112
2018-02-15T09:18:32.834Z,1124
2018-02-15T09:19:31.986Z,1108
2018-02-15T09:20:32.283Z,1104
2018-02-15T09:21:32.290Z,1112
2018-02-15T09:22:32.302Z,1128
2018-02-15T09:23:32.315Z,1136
2018-02-15T09:24:32.896Z,1116
2018-02-15T09:25:32.618Z,1112
2018-02-15T09:26:32.097Z,1120
2018-02-15T09:27:32.639Z,1124
2018-02-15T09:28:32.081Z,1132
2018-02-15T09:29:32.703Z,1116
2018-02-15T09:30:32.091Z,1112
2018-02-15T09:31:32.956Z,1104
2018-02-15T09:32:32.970Z,1084
2018-02-15T09:33:32.697Z,1096
2018-02-15T09:34:32.472Z,1128
2018-02-15T09:35:32.721Z,1148
2018-02-15T09:36:32.724Z,1168
2018-02-15T09:37:32.733Z,1180
2018-02-15T09:38:33.034Z,1188
2018-02-15T09:39:32.478Z,1180
2018-02-15T09:40:32.783Z,1188
2018-02-15T09:41:32.488Z,1224
2018-02-15T09:42:32.787Z,1264
2018-02-15T09:43:32.791Z,1300
2018-02-15T09:44:32.520Z,1320
2018-02-15T09:45:32.533Z,1308
2018-02-15T09:46:32.253Z,1284
2018-02-15T09:47:32.542Z,1252
2018-02-15T09:48:33.132Z,1232
2018-02-15T09:49:32.615Z,1224
2018-02-15T09:50:32.864Z,1240
2018-02-15T09:51:32.586Z,1272
2018-02-15T09:52:32.921Z,1296
2018-02-15T09:53:32.890Z,1296
2018-02-15T09:54:33.279Z,1288
2018-02-15T09:55:33.201Z,1284
2018-02-15T09:56:32.920Z,1304
2018-02-15T09:57:32.642Z,1328
2018-02-15T09:58:32.368Z,1324
2018-02-15T09:59:33.300Z,1324
2018-02-15T10:00:32.962Z,1300
2018-02-15T10:01:32.969Z,1280
2018-02-15T10:02:32.406Z,1260
2018-02-15T10:03:32.707Z,1252
2018-02-15T10:04:33.006Z,1244
2018-02-15T10:05:32.730Z,1216
2018-02-15T10:06:32.734Z,1180
2018-02-15T10:07:32.454Z,1168
2018-02-15T10:08:33.043Z,1180
2018-02-15T10:09:33.110Z,1200
2018-02-15T10:10:33.139Z,1216
2018-02-15T10:11:33.066Z,1196
2018-02-15T10:12:32.798Z,1176
2018-02-15T10:13:32.518Z,1204
2018-02-15T10:14:33.404Z,1188
2018-02-15T10:15:32.870Z,1184
2018-02-15T10:16:32.851Z,1164
2018-02-15T10:17:33.429Z,1132
2018-02-15T10:18:33.429Z,1124
2018-02-15T10:19:33.156Z,1108
2018-02-15T10:20:33.162Z,1112
2018-02-15T10:21:32.600Z,1132
2018-02-15T10:22:32.926Z,1164
2018-02-15T10:23:32.912Z,1152
2018-02-15T10:24:32.629Z,1176
2018-02-15T10:25:32.976Z,1180
2018-02-15T10:26:33.234Z,1164
2018-02-15T10:27:32.952Z,1108
2018-02-15T10:28:32.983Z,1056
2018-02-15T10:29:33.252Z,1084
2018-02-15T10:30:32.691Z,1148
2018-02-15T10:31:32.995Z,1160
2018-02-15T10:32:33.295Z,1160
2018-02-15T10:33:33.327Z,1164
2018-02-15T10:34:33.599Z,1180
2018-02-15T10:35:33.366Z,1188
2018-02-15T10:36:33.046Z,1192
2018-02-15T10:37:33.334Z,1212
2018-02-15T10:38:33.077Z,1228
2018-02-15T10:39:33.359Z,1252
2018-02-15T10:40:32.860Z,1288
2018-02-15T10:41:33.669Z,1300
2018-02-15T10:42:33.108Z,1284
2018-02-15T10:43:33.415Z,1276
2018-02-15T10:44:33.732Z,1292
2018-02-15T10:45:33.765Z,1312
2018-02-15T10:46:33.431Z,1328
2018-02-15T10:47:33.158Z,1352
2018-02-15T10:48:33.163Z,1360
2018-02-15T10:49:33.762Z,1340
2018-02-15T10:50:33.186Z,1332
2018-02-15T10:51:33.197Z,1364
2018-02-15T10:52:32.919Z,1412
2018-02-15T10:53:33.506Z,1452
2018-02-15T10:54:33.802Z,1476
2018-02-15T10:55:33.816Z,1476
2018-02-15T10:56:33.249Z,1472
2018-02-15T10:57:33.550Z,1488
2018-02-15T10:58:32.984Z,1520
2018-02-15T10:59:33.276Z,1496
2018-02-15T11:00:33.865Z,1492
2018-02-15T11:01:33.590Z,1504
2018-02-15T11:02:33.601Z,1532
2018-02-15T11:03:33.038Z,1556
2018-02-15T11:04:33.660Z,1564
2018-02-15T11:05:33.342Z,1564
2018-02-15T11:06:33.642Z,1568
2018-02-15T11:07:33.082Z,1572
2018-02-15T11:08:33.381Z,1560
2018-02-15T11:09:33.967Z,1536
2018-02-15T11:10:33.684Z,1484
2018-02-15T11:11:33.121Z,1432
2018-02-15T11:12:33.705Z,1408
2018-02-15T11:13:33.433Z,1380
2018-02-15T11:14:33.441Z,1356
2018-02-15T11:15:33.453Z,1356
2018-02-15T11:16:34.040Z,1368
2018-02-15T11:17:33.185Z,1360
2018-02-15T11:18:33.485Z,1380
2018-02-15T11:19:33.788Z,1432
2018-02-15T11:20:33.795Z,1460
2018-02-15T11:21:33.898Z,1484
2018-02-15T11:22:33.528Z,1488
2018-02-15T11:23:33.831Z,1504
2018-02-15T11:24:33.550Z,1532
2018-02-15T11:25:33.326Z,1560
2018-02-15T11:26:33.863Z,1572
2018-02-15T11:27:33.293Z,1596
2018-02-15T11:28:33.879Z,1588
2018-02-15T11:29:34.188Z,1532
2018-02-15T11:30:33.903Z,1540
2018-02-15T11:31:33.633Z,1572
2018-02-15T11:32:34.012Z,1596
2018-02-15T11:33:33.938Z,1588
2018-02-15T11:34:33.954Z,1536
2018-02-15T11:35:33.676Z,1468
2018-02-15T11:36:33.981Z,1420
2018-02-15T11:37:33.982Z,1412
2018-02-15T11:38:33.416Z,1436
2018-02-15T11:39:34.334Z,1500
2018-02-15T11:40:34.312Z,1572
2018-02-15T11:41:33.737Z,1632
2018-02-15T11:42:33.466Z,1684
2018-02-15T11:43:34.053Z,1676
2018-02-15T11:44:33.778Z,1644
2018-02-15T11:45:33.784Z,1616
2018-02-15T11:46:34.093Z,1580
2018-02-15T11:47:34.396Z,1560
2018-02-15T11:48:34.404Z,1544
2018-02-15T11:49:33.859Z,1548
2018-02-15T11:50:33.841Z,1544
2018-02-15T11:51:33.565Z,1556
2018-02-15T11:52:34.472Z,1608
2018-02-15T11:53:33.869Z,1640
2018-02-15T11:54:33.887Z,1640
2018-02-15T11:55:34.186Z,1640
2018-02-15T11:56:34.250Z,1624
2018-02-15T11:57:33.929Z,1548
2018-02-15T11:58:34.219Z,1492
2018-02-15T11:59:34.524Z,1428
2018-02-15T12:00:33.955Z,1392
2018-02-15T12:01:34.268Z,1408
2018-02-15T12:02:34.546Z,1456
2018-02-15T12:03:34.272Z,1476
2018-02-15T12:04:33.997Z,1488
2018-02-15T12:05:34.051Z,1456
2018-02-15T12:06:34.599Z,1444
2018-02-15T12:07:34.601Z,1436
2018-02-15T12:08:34.330Z,1432
2018-02-15T12:09:34.627Z,1416
2018-02-15T12:10:34.355Z,1408
2018-02-15T12:11:34.097Z,1460
2018-02-15T12:12:34.091Z,1500
2018-02-15T12:13:34.102Z,1460
2018-02-15T12:14:34.404Z,1420
2018-02-15T12:15:33.841Z,1404
2018-02-15T12:16:34.186Z,1404
2018-02-15T12:17:33.864Z,1424
2018-02-15T12:18:34.171Z,1436
2018-02-15T12:19:34.462Z,1428
2018-02-15T12:20:34.527Z,1388
2018-02-15T12:21:34.481Z,1344
2018-02-15T12:22:34.498Z,1292
2018-02-15T12:23:34.216Z,1272
2018-02-15T12:24:33.942Z,1264
2018-02-15T12:25:34.530Z,1268
2018-02-15T12:26:34.533Z,1264
2018-02-15T12:27:33.974Z,1276
2018-02-15T12:28:34.324Z,1292
2018-02-15T12:29:34.284Z,1316
2018-02-15T12:30:34.019Z,1356
2018-02-15T12:31:34.365Z,1380
2018-02-15T12:32:34.894Z,1396
2018-02-15T12:33:34.618Z,1392
2018-02-15T12:34:34.637Z,1380
2018-02-15T12:35:34.646Z,1360
2018-02-15T12:36:34.941Z,1336
2018-02-15T12:37:34.668Z,1324
2018-02-15T12:38:34.394Z,1308
2018-02-15T12:39:34.119Z,1292
2018-02-15T12:40:34.704Z,1292
2018-02-15T12:41:34.713Z,1292
2018-02-15T12:42:35.017Z,1288
2018-02-15T12:43:34.455Z,1276
2018-02-15T12:44:34.176Z,1280
2018-02-15T12:45:34.761Z,1312
2018-02-15T12:46:34.493Z,1348
2018-02-15T12:47:34.261Z,1360
2018-02-15T12:48:34.795Z,1356
2018-02-15T12:49:34.807Z,1340
2018-02-15T12:50:34.536Z,1328
2018-02-15T12:51:34.831Z,1316
2018-02-15T12:52:34.871Z,1320
2018-02-15T12:53:34.856Z,1312
2018-02-15T12:54:34.869Z,1300
2018-02-15T12:55:34.887Z,1280
2018-02-15T12:56:34.604Z,1268
2018-02-15T12:57:34.329Z,1272
2018-02-15T12:58:34.916Z,1288
2018-02-15T12:59:34.650Z,1276
2018-02-15T13:00:34.661Z,1240
2018-02-15T13:01:34.953Z,1208
2018-02-15T13:02:34.673Z,1176
2018-02-15T13:03:35.262Z,1152
2018-02-15T13:04:35.024Z,1140
2018-02-15T13:05:34.712Z,1140
2018-02-15T13:06:35.010Z,1156
2018-02-15T13:07:34.751Z,1176
2018-02-15T13:08:34.753Z,1180
2018-02-15T13:09:35.047Z,1168
2018-02-15T13:10:35.350Z,1168
2018-02-15T13:11:34.496Z,1160
2018-02-15T13:12:34.505Z,1124
2018-02-15T13:13:34.807Z,1096
2018-02-15T13:14:35.104Z,1080
2018-02-15T13:15:35.116Z,1064
2018-02-15T13:16:34.558Z,1052
2018-02-15T13:17:35.145Z,1028
2018-02-15T13:18:34.885Z,992
2018-02-15T13:19:35.163Z,964
2018-02-15T13:20:34.889Z,944
2018-02-15T13:21:35.239Z,932
2018-02-15T13:22:35.200Z,924
2018-02-15T13:23:35.211Z,904
2018-02-15T13:24:35.231Z,892
2018-02-15T13:25:34.954Z,888
2018-02-15T13:26:35.252Z,892
2018-02-15T13:27:34.975Z,904
2018-02-15T13:28:34.987Z,920
2018-02-15T13:29:34.995Z,928
2018-02-15T13:30:35.582Z,924
2018-02-15T13:31:35.023Z,912
2018-02-15T13:32:34.744Z,888
2018-02-15T13:33:35.042Z,864
2018-02-15T13:34:35.058Z,848
2018-02-15T13:35:35.069Z,820
2018-02-15T13:36:35.131Z,812
2018-02-15T13:37:35.388Z,828
2018-02-15T13:38:35.123Z,824
2018-02-15T13:39:35.410Z,800
2018-02-15T13:40:35.412Z,764
2018-02-15T13:41:34.904Z,744
2018-02-15T13:42:35.189Z,752
2018-02-15T13:43:35.162Z,748
2018-02-15T13:44:35.515Z,716
2018-02-15T13:45:35.190Z,676
2018-02-15T13:46:35.252Z,656
2018-02-15T13:47:35.506Z,640
2018-02-15T13:48:35.233Z,628
2018-02-15T13:49:35.521Z,640
2018-02-15T13:50:35.536Z,640
2018-02-15T13:51:35.314Z,628
2018-02-15T13:52:35.278Z,624
2018-02-15T13:53:35.575Z,620
2018-02-15T13:54:35.582Z,616
2018-02-15T13:55:35.597Z,612
2018-02-15T13:56:35.616Z,600
2018-02-15T13:57:35.346Z,580
2018-02-15T13:58:35.631Z,552
2018-02-15T13:59:35.639Z,536
2018-02-15T14:00:35.941Z,520
2018-02-15T14:01:35.958Z,508
2018-02-15T14:02:35.675Z,496
2018-02-15T14:03:35.691Z,492
2018-02-15T14:04:35.416Z,468